Time;durP1;ratioP1;P1;durP2;ratioP2;P2;SDS_P1;SDS_P2;PMS_P1;PMS_P2;Temp;Humidity;BMP_temperature;BMP_pressure;BME280_temperature;BME280_humidity;BME280_pressure;Samples;Min_cycle;Max_cycle;Signal;HPM_P1;HPM_P2
2022/10/03 04:09:42;;;;;;;;;;;;;;;16.92;77.41;97587.19;4230768;27;10411;-77
2022/10/03 04:11:58;;;;;;;;;;;;;;;17.22;76.46;97587.44;4227359;28;5695;-75
2022/10/03 04:14:20;;;;;;;;;;;;;;;17.43;75.85;97589.72;4220343;28;5605;-76
2022/10/03 04:19:09;;;;;;;;;;;;;;;17.73;75.17;97587.28;4230594;28;5620;-77
2022/10/03 04:21:34;;;;;;;;;;;;;;;17.84;74.77;97584.91;4230623;28;5711;-76
2022/10/03 04:24:01;;;;;;;;;;;;;;;17.92;74.36;97588.13;4231257;28;5684;-77
2022/10/03 04:26:21;;;;;;;;;;;;;;;18.00;74.13;97587.00;4231149;28;5674;-78
2022/10/03 04:28:50;;;;;;;;;;;;;;;18.02;74.08;97576.94;4229654;28;5706;-77
2022/10/03 04:31:04;;;;;;;;;;;;;;;18.06;73.68;97579.97;4227775;28;5793;-77
2022/10/03 04:33:24;;;;;;;;;;;;;;;18.10;73.83;97575.81;4230797;28;5927;-78
2022/10/03 04:35:58;;;;;;;;;;;;;;;18.13;73.65;97575.38;4230802;28;5798;-78
2022/10/03 04:38:11;;;;;;;;;;;;;;;18.14;73.33;97575.16;4230858;28;5669;-77
2022/10/03 04:40:27;;;;;;;;;;;;;;;18.14;73.27;97564.47;4221219;28;6317;-78
2022/10/03 04:42:45;;;;;;;;;;;;;;;18.14;72.79;97559.09;4215084;27;5632;-78
2022/10/03 04:45:04;;;;;;;;;;;;;;;18.14;72.62;97555.63;4218316;27;5851;-78
2022/10/03 04:47:14;;;;;;;;;;;;;;;18.14;72.58;97556.44;4215646;28;5730;-77
2022/10/03 04:49:29;;;;;;;;;;;;;;;18.12;72.63;97542.47;4219369;28;5836;-78
2022/10/03 04:51:49;;;;;;;;;;;;;;;18.12;72.50;97555.84;4213770;28;5635;-77
2022/10/03 04:54:03;;;;;;;;;;;;;;;18.13;72.20;97551.31;4213540;28;5738;-78
2022/10/03 04:56:21;;;;;;;;;;;;;;;18.12;72.14;97555.00;4223512;27;5727;-77
2022/10/03 04:58:37;;;;;;;;;;;;;;;18.11;72.25;97556.03;4230698;27;5624;-76
2022/10/03 05:00:59;;;;;;;;;;;;;;;18.09;72.03;97553.59;4219065;28;5478;-77
2022/10/03 05:03:12;;;;;;;;;;;;;;;18.11;71.90;97559.53;4197684;28;7694;-77
2022/10/03 05:05:26;;;;;;;;;;;;;;;18.10;71.59;97551.72;4221728;28;5694;-77
2022/10/03 05:07:40;;;;;;;;;;;;;;;18.09;71.69;97548.22;4215035;28;5644;-76
2022/10/03 05:09:52;;;;;;;;;;;;;;;18.07;71.69;97541.47;4220291;28;5822;-76
2022/10/03 05:12:05;;;;;;;;;;;;;;;18.06;71.70;97539.84;4216500;28;5617;-77
2022/10/03 05:14:21;;;;;;;;;;;;;;;18.07;71.50;97533.44;4217734;28;5733;-77
2022/10/03 05:16:35;;;;;;;;;;;;;;;18.06;71.39;97529.16;4210915;28;5100;-76
2022/10/03 05:18:45;;;;;;;;;;;;;;;18.07;71.36;97531.59;4214562;28;5754;-77
2022/10/03 05:20:56;;;;;;;;;;;;;;;18.08;71.19;97529.72;4210064;28;5826;-77
2022/10/03 05:23:11;;;;;;;;;;;;;;;18.08;70.95;97535.09;4209649;28;5663;-76
2022/10/03 05:25:27;;;;;;;;;;;;;;;18.06;70.96;97545.19;4211767;28;5601;-72
2022/10/03 05:27:41;;;;;;;;;;;;;;;18.09;70.78;97539.41;4215638;28;5617;-71
2022/10/03 05:29:57;;;;;;;;;;;;;;;18.13;70.84;97546.78;4211459;28;6357;-71
2022/10/03 05:32:23;;;;;;;;;;;;;;;18.14;70.51;97544.91;4211766;28;6333;-72
2022/10/03 05:34:40;;;;;;;;;;;;;;;18.15;70.55;97546.53;4215530;28;5814;-72
2022/10/03 05:37:01;;;;;;;;;;;;;;;18.14;70.49;97536.88;4210172;28;5817;-71
2022/10/03 05:39:28;;;;;;;;;;;;;;;18.13;70.34;97543.28;4215816;28;5687;-71
2022/10/03 05:41:34;;;;;;;;;;;;;;;18.10;70.39;97544.53;4218096;28;5621;-72
2022/10/03 05:43:57;;;;;;;;;;;;;;;18.11;70.05;97542.66;4218167;28;5709;-72
2022/10/03 05:46:10;;;;;;;;;;;;;;;18.09;70.11;97547.41;4218651;28;5682;-72
2022/10/03 05:48:23;;;;;;;;;;;;;;;18.09;69.96;97550.91;4218650;28;5749;-72
2022/10/03 05:51:10;;;;;;;;;;;;;;;18.11;69.78;97556.03;4201788;28;6312;-72
2022/10/03 05:53:43;;;;;;;;;;;;;;;18.09;69.85;97550.91;4201894;28;5636;-72
2022/10/03 05:55:56;;;;;;;;;;;;;;;18.08;69.65;97553.81;4214180;28;5625;-72
2022/10/03 05:58:32;;;;;;;;;;;;;;;18.07;69.67;97562.88;4218408;28;5704;-72
2022/10/03 06:00:53;;;;;;;;;;;;;;;18.06;69.43;97570.09;4218402;28;5748;-71
2022/10/03 06:03:29;;;;;;;;;;;;;;;18.04;69.33;97581.03;4218465;28;5674;-72
2022/10/03 06:05:43;;;;;;;;;;;;;;;18.04;69.36;97578.34;4218542;28;5685;-72
2022/10/03 06:08:03;;;;;;;;;;;;;;;18.04;69.45;97581.03;4217781;28;5867;-72
2022/10/03 06:10:32;;;;;;;;;;;;;;;18.05;69.35;97587.19;4218167;28;5629;-71
2022/10/03 06:12:44;;;;;;;;;;;;;;;18.07;69.30;97585.09;4218160;28;5888;-71
2022/10/03 06:15:05;;;;;;;;;;;;;;;18.09;69.18;97582.19;4217878;28;5617;-72
2022/10/03 06:17:35;;;;;;;;;;;;;;;18.11;69.15;97580.13;4218314;28;5800;-71
2022/10/03 06:19:51;;;;;;;;;;;;;;;18.15;69.02;97586.69;4213527;28;5712;-72
2022/10/03 06:22:25;;;;;;;;;;;;;;;18.15;69.11;97584.00;4217240;28;5613;-72
2022/10/03 06:25:00;;;;;;;;;;;;;;;18.16;69.09;97588.31;4216823;28;5710;-71
2022/10/03 06:27:49;;;;;;;;;;;;;;;18.17;69.05;97592.63;4215463;28;5715;-71
2022/10/03 06:30:19;;;;;;;;;;;;;;;18.16;68.71;97591.81;4208656;28;5699;-71
2022/10/03 06:33:04;;;;;;;;;;;;;;;18.18;68.85;97594.25;4210807;28;5759;-71
2022/10/03 06:35:54;;;;;;;;;;;;;;;18.20;68.73;97601.03;4214686;28;5756;-71
2022/10/03 06:38:26;;;;;;;;;;;;;;;18.22;68.65;97600.78;4209144;28;5640;-71
2022/10/03 06:40:50;;;;;;;;;;;;;;;18.22;68.81;97598.94;4197862;28;6520;-71
2022/10/03 06:43:11;;;;;;;;;;;;;;;18.25;68.58;97603.06;4206894;28;5720;-71
2022/10/03 06:45:44;;;;;;;;;;;;;;;18.28;68.82;97599.91;4208217;28;5667;-71
2022/10/03 06:48:03;;;;;;;;;;;;;;;18.30;68.76;97600.50;4212468;28;5701;-71
2022/10/03 06:50:31;;;;;;;;;;;;;;;18.31;68.42;97597.59;4213128;28;5826;-71
2022/10/03 06:52:53;;;;;;;;;;;;;;;18.33;68.50;97608.09;4192904;28;5664;-71
2022/10/03 06:55:33;;;;;;;;;;;;;;;18.35;68.32;97600.69;4216824;28;5625;-71
2022/10/03 06:58:13;;;;;;;;;;;;;;;18.35;68.36;97606.03;4206350;28;5846;-71
2022/10/03 07:00:19;;;;;;;;;;;;;;;18.37;68.36;97611.97;4216851;28;5699;-71
2022/10/03 07:02:56;;;;;;;;;;;;;;;18.37;68.38;97600.44;4209194;28;5677;-72
2022/10/03 07:05:38;;;;;;;;;;;;;;;18.39;68.40;97614.44;4203392;28;6490;-71
2022/10/03 07:08:14;;;;;;;;;;;;;;;18.40;68.21;97613.38;4211893;28;5665;-72
2022/10/03 07:10:35;;;;;;;;;;;;;;;18.44;68.34;97610.03;4208808;28;5613;-71
2022/10/03 07:13:05;;;;;;;;;;;;;;;18.45;68.19;97619.69;4216848;28;5608;-70
2022/10/03 07:15:41;;;;;;;;;;;;;;;18.46;68.09;97626.72;4215770;28;5786;-71
2022/10/03 07:18:53;;;;;;;;;;;;;;;18.49;68.05;97623.56;4200866;28;5617;-71
2022/10/03 07:21:16;;;;;;;;;;;;;;;18.51;67.94;97624.16;4156471;28;5779;-71
2022/10/03 07:23:41;;;;;;;;;;;;;;;18.53;67.84;97621.25;4200318;28;6480;-71
2022/10/03 07:26:14;;;;;;;;;;;;;;;18.55;67.94;97614.63;4214498;28;6302;-72
2022/10/03 07:28:41;;;;;;;;;;;;;;;18.55;68.03;97628.03;4199524;28;5786;-70
2022/10/03 07:31:00;;;;;;;;;;;;;;;18.55;68.08;97624.53;4216301;28;5666;-71
2022/10/03 07:33:57;;;;;;;;;;;;;;;18.56;67.70;97626.97;4216158;28;5616;-70
2022/10/03 07:39:08;;;;;;;;;;;;;;;18.60;67.60;97632.72;4163365;28;5769;-71
2022/10/03 07:41:59;;;;;;;;;;;;;;;18.62;67.38;97630.63;4151035;28;5081;-71
2022/10/03 07:44:28;;;;;;;;;;;;;;;18.66;67.33;97631.03;4158103;28;5957;-70
2022/10/03 07:47:04;;;;;;;;;;;;;;;18.68;67.06;97629.75;4148502;28;5783;-71
2022/10/03 07:49:25;;;;;;;;;;;;;;;18.70;67.08;97634.91;4163363;28;5833;-71
2022/10/03 07:51:39;;;;;;;;;;;;;;;18.71;67.20;97632.00;4157764;28;5777;-71
2022/10/03 07:54:15;;;;;;;;;;;;;;;18.71;66.93;97634.69;4164324;28;5860;-71
2022/10/03 07:56:52;;;;;;;;;;;;;;;18.73;66.85;97647.84;4164099;28;5852;-71
2022/10/03 07:59:07;;;;;;;;;;;;;;;18.73;67.00;97640.63;4099623;28;5867;-70
2022/10/03 08:01:22;;;;;;;;;;;;;;;18.77;66.86;97638.31;4099155;29;5854;-71
2022/10/03 08:04:10;;;;;;;;;;;;;;;18.81;66.84;97644.88;4099543;29;5842;-71
2022/10/03 08:06:22;;;;;;;;;;;;;;;18.84;66.74;97650.59;4108053;28;5848;-71
2022/10/03 08:09:04;;;;;;;;;;;;;;;18.86;66.51;97648.50;4132834;28;6694;-71
2022/10/03 08:11:54;;;;;;;;;;;;;;;18.90;66.78;97654.22;4123957;28;5966;-70
2022/10/03 08:14:17;;;;;;;;;;;;;;;18.93;66.52;97666.38;4123857;28;5129;-71
2022/10/03 08:16:47;;;;;;;;;;;;;;;18.94;66.12;97659.97;4119813;28;5654;-71
2022/10/03 08:19:15;;;;;;;;;;;;;;;18.94;66.17;97659.97;4127923;28;5797;-70
2022/10/03 08:21:25;;;;;;;;;;;;;;;18.96;66.33;97660.56;4124278;28;5798;-71
2022/10/03 08:23:59;;;;;;;;;;;;;;;18.95;66.00;97662.41;4126842;28;5731;-71
2022/10/03 08:26:17;;;;;;;;;;;;;;;19.00;66.16;97656.38;4128268;28;5861;-71
2022/10/03 08:28:48;;;;;;;;;;;;;;;19.00;65.83;97648.34;4130315;28;5775;-71
2022/10/03 08:31:24;;;;;;;;;;;;;;;19.02;65.74;97647.06;4122909;28;5794;-71
2022/10/03 08:33:52;;;;;;;;;;;;;;;19.04;65.79;97647.66;4120094;28;5748;-71
2022/10/03 08:36:37;;;;;;;;;;;;;;;19.01;65.58;97642.75;4145187;28;5729;-70
2022/10/03 08:39:05;;;;;;;;;;;;;;;19.04;65.71;97654.91;4177646;28;5755;-71
2022/10/03 08:41:43;;;;;;;;;;;;;;;19.06;65.56;97645.56;4181094;28;5814;-70
2022/10/03 08:44:26;;;;;;;;;;;;;;;19.11;65.52;97648.38;4170234;28;5903;-70
2022/10/03 08:47:01;;;;;;;;;;;;;;;19.18;65.54;97651.00;4179325;28;5712;-70
2022/10/03 08:49:25;;;;;;;;;;;;;;;19.23;65.31;97642.25;4180077;28;5708;-71
2022/10/03 08:52:05;;;;;;;;;;;;;;;19.25;65.42;97634.78;4177092;28;5722;-70
2022/10/03 08:54:50;;;;;;;;;;;;;;;19.29;65.30;97636.81;4181096;28;5802;-70
2022/10/03 08:57:13;;;;;;;;;;;;;;;19.35;65.17;97640.44;4124691;28;5250;-70
2022/10/03 08:59:52;;;;;;;;;;;;;;;19.40;64.57;97637.91;4128971;28;5804;-70
2022/10/03 09:02:42;;;;;;;;;;;;;;;19.47;64.95;97631.38;4127572;28;5115;-70
2022/10/03 09:05:29;;;;;;;;;;;;;;;19.54;64.26;97633.97;4130511;28;5796;-70
2022/10/03 09:08:10;;;;;;;;;;;;;;;19.57;64.10;97632.72;4075482;28;5872;-70
2022/10/03 09:10:36;;;;;;;;;;;;;;;19.63;64.28;97632.63;4110458;28;5906;-70
2022/10/03 09:13:16;;;;;;;;;;;;;;;19.70;63.92;97633.31;4113170;28;5742;-71
2022/10/03 09:15:42;;;;;;;;;;;;;;;19.77;63.99;97631.34;4107552;28;6487;-71
2022/10/03 09:18:14;;;;;;;;;;;;;;;19.82;63.84;97624.47;4117691;28;6042;-71
2022/10/03 09:21:05;;;;;;;;;;;;;;;19.85;63.93;97626.72;4109302;28;7734;-71
2022/10/03 09:23:37;;;;;;;;;;;;;;;19.85;63.58;97624.84;4069489;28;5883;-71
2022/10/03 09:26:07;;;;;;;;;;;;;;;19.91;63.46;97633.81;4062178;29;5911;-70
2022/10/03 09:28:58;;;;;;;;;;;;;;;19.89;63.52;97646.66;4069325;29;6657;-70
2022/10/03 09:31:17;;;;;;;;;;;;;;;19.88;63.31;97628.94;4054994;29;5102;-70
2022/10/03 09:33:49;;;;;;;;;;;;;;;19.89;63.28;97636.75;4071960;28;5748;-70
2022/10/03 09:36:17;;;;;;;;;;;;;;;19.87;63.29;97629.97;4099146;28;5828;-71
2022/10/03 09:38:51;;;;;;;;;;;;;;;19.87;63.29;97632.66;4102040;28;5716;-70
2022/10/03 09:41:28;;;;;;;;;;;;;;;19.85;62.96;97629.41;4098867;28;5866;-70
2022/10/03 09:43:51;;;;;;;;;;;;;;;19.82;63.05;97625.31;4132995;28;5748;-71
2022/10/03 09:46:20;;;;;;;;;;;;;;;19.85;63.09;97626.72;4147909;28;5844;-71
2022/10/03 09:49:00;;;;;;;;;;;;;;;19.89;62.82;97619.81;4149983;28;5810;-71
2022/10/03 09:51:21;;;;;;;;;;;;;;;19.92;62.78;97613.97;4101864;28;6531;-71
2022/10/03 09:54:05;;;;;;;;;;;;;;;19.95;62.59;97610.84;4143091;28;5612;-71
2022/10/03 09:56:43;;;;;;;;;;;;;;;19.98;62.50;97608.50;4109609;28;5677;-71
2022/10/03 09:59:06;;;;;;;;;;;;;;;20.00;62.20;97600.22;4141508;28;5719;-70
2022/10/03 10:01:20;;;;;;;;;;;;;;;20.03;62.47;97592.50;4169387;28;6363;-71
2022/10/03 10:04:16;;;;;;;;;;;;;;;20.04;61.84;97593.31;4181499;28;5728;-71
2022/10/03 10:07:02;;;;;;;;;;;;;;;20.06;62.06;97594.75;4121017;28;5750;-71
2022/10/03 10:09:52;;;;;;;;;;;;;;;20.11;62.11;97594.03;4133108;28;5711;-71
2022/10/03 10:12:38;;;;;;;;;;;;;;;20.16;61.85;97587.94;4141135;28;5600;-72
2022/10/03 10:15:01;;;;;;;;;;;;;;;20.15;61.75;97589.00;4138150;28;5636;-73
2022/10/03 10:17:45;;;;;;;;;;;;;;;20.10;61.21;97584.34;4149651;28;5612;-70
2022/10/03 10:20:04;;;;;;;;;;;;;;;20.06;61.50;97580.50;4146935;28;5636;-70
2022/10/03 10:22:40;;;;;;;;;;;;;;;20.03;61.22;97573.72;4135195;28;6553;-70
2022/10/03 10:25:13;;;;;;;;;;;;;;;20.00;61.25;97578.75;4147946;28;5609;-70
2022/10/03 10:27:51;;;;;;;;;;;;;;;19.93;61.59;97583.41;4142949;28;6291;-70
2022/10/03 10:30:14;;;;;;;;;;;;;;;19.92;61.48;97585.28;4133181;28;5623;-71
2022/10/03 10:33:00;;;;;;;;;;;;;;;19.91;61.41;97594.38;4135897;28;6794;-71
2022/10/03 10:35:46;;;;;;;;;;;;;;;19.89;61.19;97590.31;4142777;28;5627;-72
2022/10/03 10:38:27;;;;;;;;;;;;;;;19.88;61.04;97588.66;4065389;29;5927;-70
2022/10/03 10:40:53;;;;;;;;;;;;;;;19.81;60.92;97596.81;4081933;28;5184;-71
2022/10/03 10:43:29;;;;;;;;;;;;;;;19.76;60.78;97610.94;4117686;28;6028;-71
2022/10/03 10:45:47;;;;;;;;;;;;;;;19.74;60.99;97607.69;4131551;28;5800;-71
2022/10/03 10:48:30;;;;;;;;;;;;;;;19.73;60.68;97595.31;4132235;28;5803;-71
2022/10/03 10:51:05;;;;;;;;;;;;;;;19.76;60.83;97594.03;4095577;28;5887;-71
2022/10/03 10:53:44;;;;;;;;;;;;;;;19.80;60.76;97597.06;4122569;28;5880;-72
2022/10/03 10:56:23;;;;;;;;;;;;;;;19.82;60.43;97581.53;4127667;28;5884;-71
2022/10/03 10:59:25;;;;;;;;;;;;;;;19.85;60.35;97589.16;4131636;28;5932;-71
2022/10/03 11:02:20;;;;;;;;;;;;;;;19.91;60.22;97588.19;4129939;28;5796;-71
2022/10/03 11:04:57;;;;;;;;;;;;;;;19.95;59.94;97592.06;4124328;28;5891;-72
2022/10/03 11:07:28;;;;;;;;;;;;;;;19.97;59.89;97581.91;4114123;28;5807;-72
2022/10/03 11:09:54;;;;;;;;;;;;;;;19.95;59.71;97582.16;4120094;28;5879;-70
2022/10/03 11:12:31;;;;;;;;;;;;;;;19.97;59.87;97585.41;4141258;28;5738;-71
2022/10/03 11:15:26;;;;;;;;;;;;;;;20.01;59.59;97572.34;4167058;28;5832;-71
2022/10/03 11:18:02;;;;;;;;;;;;;;;20.07;59.86;97582.16;4170773;28;6399;-70
2022/10/03 11:20:53;;;;;;;;;;;;;;;20.10;59.37;97583.53;4179369;28;5711;-71
2022/10/03 11:23:32;;;;;;;;;;;;;;;20.14;59.69;97582.81;4146759;28;6653;-71
2022/10/03 11:26:24;;;;;;;;;;;;;;;20.11;59.57;97575.25;4114099;28;6031;-72
2022/10/03 11:29:16;;;;;;;;;;;;;;;20.12;59.37;97582.25;4141825;28;5814;-71
2022/10/03 11:32:07;;;;;;;;;;;;;;;20.13;59.39;97578.50;4148944;28;5857;-71
2022/10/03 11:34:58;;;;;;;;;;;;;;;20.12;59.59;97579.56;4148527;28;5824;-71
2022/10/03 11:37:10;;;;;;;;;;;;;;;20.14;59.31;97582.81;4134231;28;6628;-71
2022/10/03 11:39:22;;;;;;;;;;;;;;;20.16;59.50;97578.06;4148932;28;5787;-71
2022/10/03 11:41:39;;;;;;;;;;;;;;;20.13;59.02;97577.69;4141718;28;5819;-71
2022/10/03 11:44:11;;;;;;;;;;;;;;;20.11;59.13;97580.63;4143595;28;5874;-71
2022/10/03 11:46:28;;;;;;;;;;;;;;;20.13;58.96;97566.97;4138410;28;6924;-71
2022/10/03 11:48:40;;;;;;;;;;;;;;;20.15;58.83;97571.03;4135700;28;7821;-71
2022/10/03 11:50:48;;;;;;;;;;;;;;;20.17;58.90;97571.63;4134867;28;5787;-71
2022/10/03 11:53:13;;;;;;;;;;;;;;;20.15;58.48;97576.41;4138516;28;5782;-71
2022/10/03 11:55:29;;;;;;;;;;;;;;;20.16;58.57;97575.38;4140266;28;6681;-71
2022/10/03 11:57:36;;;;;;;;;;;;;;;20.17;58.63;97568.94;4161854;28;6588;-71
2022/10/03 11:59:54;;;;;;;;;;;;;;;20.19;58.51;97572.22;4180848;28;5868;-71
2022/10/03 12:02:11;;;;;;;;;;;;;;;20.17;58.16;97568.94;4178495;28;5820;-71
2022/10/03 12:04:26;;;;;;;;;;;;;;;20.19;58.30;97572.22;4181915;28;5733;-71
2022/10/03 12:09:17;;;;;;;;;;;;;;;20.26;58.03;97567.50;4210577;28;6455;-71
2022/10/03 12:11:27;;;;;;;;;;;;;;;20.30;58.20;97578.63;4202670;28;5636;-72
2022/10/03 12:13:36;;;;;;;;;;;;;;;20.29;58.24;97560.88;4212229;28;5733;-72
2022/10/03 12:15:46;;;;;;;;;;;;;;;20.32;58.14;97563.91;4204173;28;5080;-72
2022/10/03 12:18:01;;;;;;;;;;;;;;;20.32;58.07;97561.22;4207569;28;5767;-72
2022/10/03 12:20:18;;;;;;;;;;;;;;;20.36;57.63;97570.41;4206685;28;6329;-72
2022/10/03 12:22:35;;;;;;;;;;;;;;;20.37;58.01;97560.50;4205913;28;5613;-71
2022/10/03 12:24:42;;;;;;;;;;;;;;;20.40;57.80;97554.66;4212711;28;5866;-72
2022/10/03 12:26:52;;;;;;;;;;;;;;;20.43;57.78;97561.47;4214217;28;5718;-72
2022/10/03 12:28:57;;;;;;;;;;;;;;;20.45;57.83;97572.78;4209922;28;5686;-72
2022/10/03 12:31:06;;;;;;;;;;;;;;;20.46;57.82;97564.47;4211593;28;5632;-71
2022/10/03 12:33:28;;;;;;;;;;;;;;;20.44;57.40;97573.84;4212814;28;5623;-72
2022/10/03 12:35:44;;;;;;;;;;;;;;;20.43;57.43;97574.88;4204167;28;5636;-72
2022/10/03 12:38:02;;;;;;;;;;;;;;;20.38;57.64;97572.88;4209747;28;5691;-72
2022/10/03 12:40:14;;;;;;;;;;;;;;;20.38;57.52;97572.06;4217637;28;5624;-72
2022/10/03 12:42:29;;;;;;;;;;;;;;;20.36;57.62;97566.91;4202567;28;5711;-72
2022/10/03 12:44:47;;;;;;;;;;;;;;;20.35;57.50;97559.91;4216564;28;5601;-71
2022/10/03 12:46:57;;;;;;;;;;;;;;;20.36;57.46;97566.91;4214319;28;5111;-71
2022/10/03 12:49:11;;;;;;;;;;;;;;;20.37;57.48;97560.50;4208008;28;5748;-71
2022/10/03 12:51:42;;;;;;;;;;;;;;;20.38;57.06;97574.72;4211937;28;5618;-71
2022/10/03 12:53:56;;;;;;;;;;;;;;;20.40;57.33;97572.66;4205982;28;5609;-72
2022/10/03 12:56:07;;;;;;;;;;;;;;;20.40;57.26;97569.97;4204603;28;5718;-71
2022/10/03 12:58:25;;;;;;;;;;;;;;;20.38;56.86;97569.38;4215669;28;5618;-71
2022/10/03 13:00:35;;;;;;;;;;;;;;;20.43;57.25;97558.78;4201915;28;5722;-72
2022/10/03 13:02:43;;;;;;;;;;;;;;;20.41;57.21;97559.00;4209186;28;6307;-72
2022/10/03 13:05:03;;;;;;;;;;;;;;;20.37;56.77;97568.56;4211447;28;5609;-72
2022/10/03 13:07:23;;;;;;;;;;;;;;;20.35;56.53;97558.03;4211272;28;5696;-72
2022/10/03 13:09:45;;;;;;;;;;;;;;;20.38;56.64;97558.63;4181225;28;6388;-71
2022/10/03 13:12:01;;;;;;;;;;;;;;;20.36;56.57;97551.63;4183410;28;5126;-72
2022/10/03 13:14:23;;;;;;;;;;;;;;;20.34;56.21;97555.59;4180222;28;5814;-72
2022/10/03 13:16:28;;;;;;;;;;;;;;;20.31;56.48;97559.59;4182951;28;6341;-72
2022/10/03 13:18:44;;;;;;;;;;;;;;;20.31;56.81;97548.03;4180161;28;5683;-72
2022/10/03 13:20:55;;;;;;;;;;;;;;;20.35;56.44;97544.63;4183515;28;5812;-72
2022/10/03 13:23:06;;;;;;;;;;;;;;;20.38;56.73;97545.19;4182701;28;6360;-72
2022/10/03 13:25:18;;;;;;;;;;;;;;;20.42;56.50;97547.22;4184177;28;5781;-72
2022/10/03 13:27:36;;;;;;;;;;;;;;;20.43;56.22;97548.03;4183893;28;5779;-72
2022/10/03 13:29:44;;;;;;;;;;;;;;;20.43;56.30;97556.09;4175450;28;5574;-72
2022/10/03 13:32:00;;;;;;;;;;;;;;;20.47;56.58;97546.50;4180412;28;6466;-72
2022/10/03 13:34:11;;;;;;;;;;;;;;;20.47;56.42;97541.94;4181964;28;5679;-71
2022/10/03 13:36:22;;;;;;;;;;;;;;;20.50;56.48;97548.69;4183052;28;6448;-72
2022/10/03 13:38:54;;;;;;;;;;;;;;;20.50;56.29;97549.53;4183714;28;5823;-71
2022/10/03 13:41:06;;;;;;;;;;;;;;;20.51;56.44;97547.66;4179412;28;5674;-72
2022/10/03 13:43:13;;;;;;;;;;;;;;;20.50;55.93;97543.31;4183474;28;5850;-72
2022/10/03 13:45:22;;;;;;;;;;;;;;;20.49;55.63;97547.88;4183744;28;6346;-72
2022/10/03 13:47:42;;;;;;;;;;;;;;;20.49;55.80;97544.38;4179590;28;5774;-72
2022/10/03 13:49:52;;;;;;;;;;;;;;;20.47;55.93;97538.44;4180950;28;5709;-72
2022/10/03 13:52:01;;;;;;;;;;;;;;;20.51;56.15;97547.66;4181908;28;5699;-73
2022/10/03 13:54:14;;;;;;;;;;;;;;;20.51;56.05;97536.94;4181528;28;6520;-71
2022/10/03 13:56:28;;;;;;;;;;;;;;;20.48;56.03;97540.88;4183661;28;5975;-72
2022/10/03 13:58:43;;;;;;;;;;;;;;;20.47;55.57;97536.56;4179644;28;5634;-71
2022/10/03 14:01:00;;;;;;;;;;;;;;;20.45;55.95;97537.88;4183264;28;6349;-71
2022/10/03 14:03:25;;;;;;;;;;;;;;;20.43;55.74;97537.28;4182124;28;5778;-71
2022/10/03 14:05:54;;;;;;;;;;;;;;;20.44;55.82;97536.25;4181554;28;5690;-72
2022/10/03 14:08:04;;;;;;;;;;;;;;;20.44;55.84;97525.50;4189734;28;5692;-71
2022/10/03 14:10:25;;;;;;;;;;;;;;;20.46;55.97;97528.75;4212049;28;5644;-71
2022/10/03 14:12:43;;;;;;;;;;;;;;;20.48;55.84;97522.09;4201840;28;5106;-71
2022/10/03 14:15:11;;;;;;;;;;;;;;;20.51;55.64;97527.00;4204166;28;5628;-71
2022/10/03 14:17:19;;;;;;;;;;;;;;;20.52;55.51;97523.25;4209485;28;5802;-71
2022/10/03 14:19:32;;;;;;;;;;;;;;;20.51;55.49;97510.88;4208258;28;5618;-71
2022/10/03 14:21:56;;;;;;;;;;;;;;;20.54;55.46;97512.28;4209853;28;5743;-71
2022/10/03 14:24:06;;;;;;;;;;;;;;;20.53;55.52;97513.31;4210324;28;5730;-71
2022/10/03 14:26:17;;;;;;;;;;;;;;;20.55;55.94;97509.34;4214888;28;5829;-71
2022/10/03 14:28:26;;;;;;;;;;;;;;;20.58;55.98;97510.72;4207875;28;5837;-71
2022/10/03 14:30:35;;;;;;;;;;;;;;;20.60;55.84;97503.25;4204129;28;5647;-71
2022/10/03 14:32:58;;;;;;;;;;;;;;;20.63;55.82;97497.41;4203124;28;5670;-71
2022/10/03 14:35:12;;;;;;;;;;;;;;;20.65;55.54;97492.59;4209332;28;5699;-71
2022/10/03 14:37:25;;;;;;;;;;;;;;;20.65;55.53;97506.03;4208359;28;5775;-71
2022/10/03 14:39:40;;;;;;;;;;;;;;;20.65;55.93;97511.41;4204027;28;5624;-71
2022/10/03 14:42:11;;;;;;;;;;;;;;;20.62;55.85;97501.16;4202647;28;5694;-71
2022/10/03 14:44:19;;;;;;;;;;;;;;;20.63;55.78;97518.91;4211305;28;5902;-71
2022/10/03 14:46:25;;;;;;;;;;;;;;;20.62;55.52;97506.53;4204093;28;6401;-72
2022/10/03 14:48:34;;;;;;;;;;;;;;;20.60;55.52;97509.41;4203700;28;5707;-72
2022/10/03 14:50:40;;;;;;;;;;;;;;;20.59;55.87;97509.66;4206251;28;5707;-71
2022/10/03 14:52:48;;;;;;;;;;;;;;;20.61;55.43;97513.78;4203821;28;7688;-71
2022/10/03 14:54:54;;;;;;;;;;;;;;;20.65;55.88;97514.09;4209102;28;5601;-72
2022/10/03 14:56:59;;;;;;;;;;;;;;;20.67;55.79;97511.97;4205021;28;5685;-71
2022/10/03 14:59:13;;;;;;;;;;;;;;;20.69;55.71;97514.41;4206641;28;5790;-72
2022/10/03 15:01:20;;;;;;;;;;;;;;;20.70;55.68;97508.81;4207029;28;6446;-71
2022/10/03 15:03:32;;;;;;;;;;;;;;;20.70;55.32;97508.81;4207206;28;6495;-71
2022/10/03 15:05:37;;;;;;;;;;;;;;;20.69;55.51;97507.19;4203719;28;5723;-72
2022/10/03 15:07:43;;;;;;;;;;;;;;;20.68;55.62;97502.03;4211116;28;5632;-71
2022/10/03 15:09:49;;;;;;;;;;;;;;;20.66;55.62;97510.34;4210851;28;5790;-71
2022/10/03 15:11:59;;;;;;;;;;;;;;;20.63;55.59;97505.47;4204814;28;5691;-71
2022/10/03 15:14:05;;;;;;;;;;;;;;;20.63;55.39;97508.16;4211362;28;5676;-71
2022/10/03 15:16:13;;;;;;;;;;;;;;;20.62;55.83;97506.53;4209020;28;5632;-73
2022/10/03 15:18:21;;;;;;;;;;;;;;;20.62;55.71;97503.84;4207512;28;5748;-72
2022/10/03 15:20:29;;;;;;;;;;;;;;;20.60;55.78;97498.69;4200651;28;5651;-72
2022/10/03 15:22:35;;;;;;;;;;;;;;;20.59;55.31;97501.59;4207537;28;5650;-73
2022/10/03 15:24:41;;;;;;;;;;;;;;;20.58;55.67;97497.28;4205636;28;5715;-73
2022/10/03 15:26:50;;;;;;;;;;;;;;;20.55;55.66;97495.09;4210690;28;5771;-73
2022/10/03 15:28:58;;;;;;;;;;;;;;;20.51;55.73;97488.59;4207779;28;5731;-73
2022/10/03 15:31:12;;;;;;;;;;;;;;;20.51;55.90;97500.13;4188202;28;5627;-74
2022/10/03 15:33:18;;;;;;;;;;;;;;;20.49;55.72;97498.72;4208222;28;5771;-73
2022/10/03 15:35:26;;;;;;;;;;;;;;;20.45;55.57;97498.41;4200994;28;5655;-73
2022/10/03 15:37:34;;;;;;;;;;;;;;;20.41;55.79;97493.72;4208377;28;6263;-73
2022/10/03 15:39:41;;;;;;;;;;;;;;;20.40;55.68;97500.16;4211882;28;5877;-72
2022/10/03 15:41:53;;;;;;;;;;;;;;;20.33;55.74;97495.72;4212058;28;5092;-72
2022/10/03 15:44:02;;;;;;;;;;;;;;;20.27;55.66;97494.00;4201977;28;5635;-71
2022/10/03 15:46:16;;;;;;;;;;;;;;;20.23;55.50;97492.81;4200568;28;5730;-72
2022/10/03 15:48:24;;;;;;;;;;;;;;;20.19;55.92;97491.69;4211651;28;6521;-72
2022/10/03 15:50:32;;;;;;;;;;;;;;;20.19;55.75;97486.31;4216617;28;5633;-72
2022/10/03 15:52:40;;;;;;;;;;;;;;;20.22;55.49;97485.81;4204478;28;5624;-73
2022/10/03 15:54:47;;;;;;;;;;;;;;;20.21;55.39;97473.47;4211032;28;5604;-70
2022/10/03 15:56:54;;;;;;;;;;;;;;;20.22;55.46;97482.31;4203880;28;5831;-71
2022/10/03 15:59:00;;;;;;;;;;;;;;;20.23;55.66;97489.31;4210814;28;5751;-70
2022/10/03 16:01:08;;;;;;;;;;;;;;;20.20;55.48;97487.94;4214808;28;5649;-70
2022/10/03 16:03:16;;;;;;;;;;;;;;;20.20;55.27;97487.94;4209016;28;5564;-70
2022/10/03 16:05:24;;;;;;;;;;;;;;;20.15;55.57;97489.69;4205233;28;5640;-70
2022/10/03 16:07:35;;;;;;;;;;;;;;;20.14;55.78;97485.38;4202118;28;5833;-70
2022/10/03 16:09:50;;;;;;;;;;;;;;;20.16;55.82;97478.75;4204841;28;5126;-71
2022/10/03 16:12:06;;;;;;;;;;;;;;;20.18;55.82;97479.31;4211319;28;5711;-72
2022/10/03 16:14:18;;;;;;;;;;;;;;;20.14;55.66;97475.44;4212799;28;5807;-71
2022/10/03 16:16:28;;;;;;;;;;;;;;;20.09;55.64;97485.28;4207519;28;5722;-72
2022/10/03 16:18:49;;;;;;;;;;;;;;;20.02;55.56;97470.09;4209430;28;5857;-72
2022/10/03 16:20:57;;;;;;;;;;;;;;;20.01;55.91;97473.84;4209664;28;5976;-71
2022/10/03 16:23:11;;;;;;;;;;;;;;;20.00;56.02;97471.41;4212792;28;7711;-72
2022/10/03 16:25:18;;;;;;;;;;;;;;;19.99;55.68;97464.41;4213990;28;6504;-71
2022/10/03 16:27:24;;;;;;;;;;;;;;;19.97;55.74;97479.94;4206984;28;5633;-72
2022/10/03 16:29:31;;;;;;;;;;;;;;;19.91;56.09;97468.25;4198984;28;5624;-72
2022/10/03 16:31:38;;;;;;;;;;;;;;;19.91;55.74;97467.44;4206404;28;5605;-72
2022/10/03 16:33:50;;;;;;;;;;;;;;;19.92;56.20;97474.44;4201805;28;5683;-72
2022/10/03 16:36:02;;;;;;;;;;;;;;;19.91;55.82;97473.63;4209684;28;5633;-71
2022/10/03 16:38:16;;;;;;;;;;;;;;;19.89;56.12;97474.94;4204142;28;5628;-71
2022/10/03 16:40:23;;;;;;;;;;;;;;;19.87;56.01;97474.34;4202521;28;5647;-72
2022/10/03 16:42:38;;;;;;;;;;;;;;;19.82;55.77;97484.94;4205655;28;5688;-72
2022/10/03 16:44:51;;;;;;;;;;;;;;;19.77;56.25;97474.94;4202330;28;5625;-71
2022/10/03 16:46:58;;;;;;;;;;;;;;;19.77;56.17;97483.81;4208302;28;5637;-72